Aérodrome :
LOGIN :

S'inscrire | Disclaimer

   EN    FR    IT 

 










Légende :    VFR   VFR Marginal   IFR   IFR Intensif   IFR Très Intensif
Visi : 
Plafond : 
>= 8 km
>= 3000ft
5 à 8 km
1000 à 3000 ft
1500m à 5 km
500 à 1000 ft
800 à 1500m
200 à 500 ft
< 800m
< 200 ft
Symboles :   Orages  Brouillard  Fortes neiges  Fortes précipitations  Vent > 20 kt
SIGMETs :   Divers  Orages  Givrage  Turbulence  Onde Orograph.  Cendres Volcan.







- Altitude de l'aérodrome : 19 ft
- Code IATA : DJE


DTTJ - Djerba Zarzis

DERNIER METAR :
  • 191130Z 32005KT 280V010 9999 FEW020 15/2??Q1016 NOSIG

METARs EXPIRÉS :
  • 191100Z 32006KT 270V340 9999 FEW020 15/05 Q1016 NOSIG
  • 191030Z 32008KT 9999 FEW020 14/07 Q1017 NOSIG
  • 191000Z 32007KT 300V360 9999 FEW020 14/06 Q1017 NOSIG
  • 190930Z 33008KT 300V360 9999 FEW020 14/06 Q1016 NOSIG
  • 190830Z 35011KT 9999 FEW020 14/08 Q1016 NOSIG

TAF TAF DTTJ
Valide du 19 à 12h jusqu'au 20 à 12h UTC


191120Z 1912/2012 32006KT 9999 FEW020
BECMG 1913/1 QMC 22008KT 9999 SCT020 SCT026
TEMPO 2003/2012 4000 -SHRA FEW033CB
Pas de NOTAMs connus pour ce terrain.



MET'MAP, la Météo Aéronautique d'un coup d'oeil ! - Copyright ORBIFLY Décembre 2007 - Disclaimer

ORBIFLY MET'MAP TEAM :

Programmation & Développement : Alexandra Zaïnal
Conception & Développement : Baudouin d'Aumeries
Co-Programmation & Développement : Marc-Olivier Méhu
Soutien technique & logistique : Manuel Goepfert

Contact : metmap@orbifly.com




SOURCES & CREDITS :

   NOAA